sensor_id;sensor_type;location;lat;lon;timestamp;pressure;altitude;pressure_sealevel;temperature;humidity
75013;BME280;63567;49.956;20.130;2022-12-24T00:02:06;96163.56;;;5.17;83.15
75013;BME280;63567;49.956;20.130;2022-12-24T00:04:31;96158.72;;;5.14;83.40
75013;BME280;63567;49.956;20.130;2022-12-24T00:06:56;96160.84;;;5.10;83.62
75013;BME280;63567;49.956;20.130;2022-12-24T00:09:22;96160.69;;;5.12;83.67
75013;BME280;63567;49.956;20.130;2022-12-24T00:11:47;96152.38;;;5.08;83.74
75013;BME280;63567;49.956;20.130;2022-12-24T00:14:12;96159.41;;;5.08;84.55
75013;BME280;63567;49.956;20.130;2022-12-24T00:16:38;96160.03;;;5.10;84.79
75013;BME280;63567;49.956;20.130;2022-12-24T00:19:03;96165.44;;;5.08;84.82
75013;BME280;63567;49.956;20.130;2022-12-24T00:21:29;96159.03;;;5.11;85.00
75013;BME280;63567;49.956;20.130;2022-12-24T00:23:54;96168.31;;;5.13;85.19
75013;BME280;63567;49.956;20.130;2022-12-24T00:26:19;96166.88;;;5.11;85.58
75013;BME280;63567;49.956;20.130;2022-12-24T00:28:45;96163.09;;;5.13;85.49
75013;BME280;63567;49.956;20.130;2022-12-24T00:31:13;96162.28;;;5.13;85.68
75013;BME280;63567;49.956;20.130;2022-12-24T00:33:38;96162.75;;;5.17;85.46
75013;BME280;63567;49.956;20.130;2022-12-24T00:36:04;96164.09;;;5.12;85.83
75013;BME280;63567;49.956;20.130;2022-12-24T00:38:30;96161.31;;;5.14;85.60
75013;BME280;63567;49.956;20.130;2022-12-24T00:40:59;96148.59;;;5.11;86.06
75013;BME280;63567;49.956;20.130;2022-12-24T00:43:26;96153.00;;;5.10;86.21
75013;BME280;63567;49.956;20.130;2022-12-24T00:45:51;96151.38;;;5.09;86.41
75013;BME280;63567;49.956;20.130;2022-12-24T00:48:17;96151.22;;;5.11;86.07
75013;BME280;63567;49.956;20.130;2022-12-24T00:50:42;96141.13;;;5.08;86.91
75013;BME280;63567;49.956;20.130;2022-12-24T00:53:07;96143.09;;;5.06;86.57
75013;BME280;63567;49.956;20.130;2022-12-24T00:55:33;96139.84;;;5.04;86.53
75013;BME280;63567;49.956;20.130;2022-12-24T00:57:58;96136.88;;;5.07;87.02
75013;BME280;63567;49.956;20.130;2022-12-24T01:00:23;96138.69;;;5.06;87.33
75013;BME280;63567;49.956;20.130;2022-12-24T01:02:49;96140.50;;;5.06;87.44
75013;BME280;63567;49.956;20.130;2022-12-24T01:05:14;96129.69;;;5.09;87.40
75013;BME280;63567;49.956;20.130;2022-12-24T01:07:42;96125.81;;;5.05;87.80
75013;BME280;63567;49.956;20.130;2022-12-24T01:10:13;96125.63;;;5.06;87.43
75013;BME280;63567;49.956;20.130;2022-12-24T01:12:39;96120.41;;;5.06;87.70
75013;BME280;63567;49.956;20.130;2022-12-24T01:15:05;96115.56;;;5.03;87.69
75013;BME280;63567;49.956;20.130;2022-12-24T01:17:32;96115.25;;;4.98;87.79
75013;BME280;63567;49.956;20.130;2022-12-24T01:19:58;96118.69;;;4.99;88.31
75013;BME280;63567;49.956;20.130;2022-12-24T01:22:23;96108.06;;;5.00;87.90
75013;BME280;63567;49.956;20.130;2022-12-24T01:24:48;96104.28;;;5.03;87.67
75013;BME280;63567;49.956;20.130;2022-12-24T01:27:14;96101.03;;;5.01;87.65
75013;BME280;63567;49.956;20.130;2022-12-24T01:29:39;96090.16;;;4.97;88.14
75013;BME280;63567;49.956;20.130;2022-12-24T01:32:04;96087.19;;;5.00;87.68
75013;BME280;63567;49.956;20.130;2022-12-24T01:34:30;96089.91;;;5.07;87.56
75013;BME280;63567;49.956;20.130;2022-12-24T01:36:55;96082.28;;;5.05;88.04
75013;BME280;63567;49.956;20.130;2022-12-24T01:39:20;96081.75;;;5.10;87.65
75013;BME280;63567;49.956;20.130;2022-12-24T01:41:46;96078.75;;;5.13;87.63
75013;BME280;63567;49.956;20.130;2022-12-24T01:44:33;96074.16;;;5.15;87.68
75013;BME280;63567;49.956;20.130;2022-12-24T01:47:13;96075.97;;;5.14;87.48
75013;BME280;63567;49.956;20.130;2022-12-24T01:49:43;96070.38;;;5.18;87.47
75013;BME280;63567;49.956;20.130;2022-12-24T01:52:16;96074.53;;;5.12;88.08
75013;BME280;63567;49.956;20.130;2022-12-24T01:54:55;96062.94;;;5.14;87.38
75013;BME280;63567;49.956;20.130;2022-12-24T01:57:30;96066.72;;;5.12;87.40
75013;BME280;63567;49.956;20.130;2022-12-24T02:00:03;96063.56;;;5.17;87.08
75013;BME280;63567;49.956;20.130;2022-12-24T02:02:29;96069.59;;;5.17;87.25
75013;BME280;63567;49.956;20.130;2022-12-24T02:07:37;96070.38;;;5.18;87.08
75013;BME280;63567;49.956;20.130;2022-12-24T02:10:04;96068.41;;;5.20;86.86
75013;BME280;63567;49.956;20.130;2022-12-24T02:12:33;96067.44;;;5.21;86.74
75013;BME280;63567;49.956;20.130;2022-12-24T02:14:59;96072.03;;;5.19;86.94
75013;BME280;63567;49.956;20.130;2022-12-24T02:17:31;96069.94;;;5.14;87.29
75013;BME280;63567;49.956;20.130;2022-12-24T02:22:53;96075.41;;;5.04;87.60
75013;BME280;63567;49.956;20.130;2022-12-24T02:31:22;96070.47;;;4.94;87.92
75013;BME280;63567;49.956;20.130;2022-12-24T02:37:03;96056.13;;;4.90;88.29
75013;BME280;63567;49.956;20.130;2022-12-24T02:39:38;96058.91;;;4.89;88.50
75013;BME280;63567;49.956;20.130;2022-12-24T02:42:05;96058.66;;;4.84;88.61
75013;BME280;63567;49.956;20.130;2022-12-24T02:44:40;96077.19;;;4.89;88.84
75013;BME280;63567;49.956;20.130;2022-12-24T02:47:08;96062.31;;;4.89;88.71
75013;BME280;63567;49.956;20.130;2022-12-24T02:49:35;96068.72;;;4.87;88.60
75013;BME280;63567;49.956;20.130;2022-12-24T02:52:01;96059.72;;;4.89;88.83
75013;BME280;63567;49.956;20.130;2022-12-24T02:54:27;96057.91;;;4.90;88.56
75013;BME280;63567;49.956;20.130;2022-12-24T02:59:44;96060.34;;;4.91;88.91
75013;BME280;63567;49.956;20.130;2022-12-24T03:05:14;96055.66;;;4.87;89.13
75013;BME280;63567;49.956;20.130;2022-12-24T03:08:01;96070.00;;;4.91;89.03
75013;BME280;63567;49.956;20.130;2022-12-24T03:11:01;96061.53;;;4.89;88.73
75013;BME280;63567;49.956;20.130;2022-12-24T03:13:26;96063.88;;;4.84;89.38
75013;BME280;63567;49.956;20.130;2022-12-24T03:15:52;96061.91;;;4.86;89.22
75013;BME280;63567;49.956;20.130;2022-12-24T03:18:20;96067.56;;;4.89;89.38
75013;BME280;63567;49.956;20.130;2022-12-24T03:21:09;96068.81;;;4.93;89.20
75013;BME280;63567;49.956;20.130;2022-12-24T03:23:36;96064.78;;;4.91;89.43
75013;BME280;63567;49.956;20.130;2022-12-24T03:26:06;96064.59;;;4.92;89.12
75013;BME280;63567;49.956;20.130;2022-12-24T03:28:33;96064.06;;;4.97;89.08
75013;BME280;63567;49.956;20.130;2022-12-24T03:31:00;96056.03;;;4.99;89.23
75013;BME280;63567;49.956;20.130;2022-12-24T03:33:27;96057.69;;;5.00;89.09
75013;BME280;63567;49.956;20.130;2022-12-24T03:35:52;96062.09;;;4.99;89.13
75013;BME280;63567;49.956;20.130;2022-12-24T03:38:17;96066.13;;;5.02;88.98
75013;BME280;63567;49.956;20.130;2022-12-24T03:40:43;96067.13;;;5.01;88.99
75013;BME280;63567;49.956;20.130;2022-12-24T03:43:08;96071.38;;;5.02;89.00
75013;BME280;63567;49.956;20.130;2022-12-24T03:45:33;96062.16;;;4.91;89.22
75013;BME280;63567;49.956;20.130;2022-12-24T03:47:59;96063.78;;;4.92;89.39
75013;BME280;63567;49.956;20.130;2022-12-24T03:50:24;96059.03;;;4.96;88.92
75013;BME280;63567;49.956;20.130;2022-12-24T03:52:49;96052.63;;;4.98;88.85
75013;BME280;63567;49.956;20.130;2022-12-24T03:55:15;96061.63;;;4.96;88.86
75013;BME280;63567;49.956;20.130;2022-12-24T03:57:40;96064.88;;;4.98;88.98
75013;BME280;63567;49.956;20.130;2022-12-24T04:00:06;96068.28;;;4.98;88.71
75013;BME280;63567;49.956;20.130;2022-12-24T04:02:32;96056.88;;;4.99;88.59
75013;BME280;63567;49.956;20.130;2022-12-24T04:04:57;96062.78;;;4.93;88.55
75013;BME280;63567;49.956;20.130;2022-12-24T04:07:22;96065.03;;;4.96;88.29
75013;BME280;63567;49.956;20.130;2022-12-24T04:09:48;96057.03;;;4.98;88.14
75013;BME280;63567;49.956;20.130;2022-12-24T04:12:13;96063.69;;;5.00;87.88
75013;BME280;63567;49.956;20.130;2022-12-24T04:14:39;96059.19;;;4.94;87.80
75013;BME280;63567;49.956;20.130;2022-12-24T04:17:04;96052.63;;;4.98;87.64
75013;BME280;63567;49.956;20.130;2022-12-24T04:19:30;96055.25;;;4.98;87.78
75013;BME280;63567;49.956;20.130;2022-12-24T04:21:56;96051.81;;;4.98;87.36
75013;BME280;63567;49.956;20.130;2022-12-24T04:24:21;96051.13;;;5.04;87.35
75013;BME280;63567;49.956;20.130;2022-12-24T04:26:47;96038.06;;;5.04;86.80
75013;BME280;63567;49.956;20.130;2022-12-24T04:29:12;96054.91;;;5.01;86.71
75013;BME280;63567;49.956;20.130;2022-12-24T04:31:37;96049.84;;;5.00;87.18
75013;BME280;63567;49.956;20.130;2022-12-24T04:34:03;96049.94;;;5.06;87.18
75013;BME280;63567;49.956;20.130;2022-12-24T04:36:28;96051.75;;;5.06;86.75
75013;BME280;63567;49.956;20.130;2022-12-24T04:38:54;96049.31;;;5.04;87.27
75013;BME280;63567;49.956;20.130;2022-12-24T04:41:21;96057.69;;;5.14;86.81
75013;BME280;63567;49.956;20.130;2022-12-24T04:43:47;96056.59;;;5.09;87.11
75013;BME280;63567;49.956;20.130;2022-12-24T04:46:15;96051.47;;;5.15;87.17
75013;BME280;63567;49.956;20.130;2022-12-24T04:48:45;96051.13;;;5.19;86.72
75013;BME280;63567;49.956;20.130;2022-12-24T04:51:11;96055.03;;;5.23;87.08
75013;BME280;63567;49.956;20.130;2022-12-24T04:53:38;96056.38;;;5.19;87.24
75013;BME280;63567;49.956;20.130;2022-12-24T04:56:08;96063.66;;;5.23;87.00
75013;BME280;63567;49.956;20.130;2022-12-24T04:58:34;96064.91;;;5.27;86.78
75013;BME280;63567;49.956;20.130;2022-12-24T05:01:07;96061.47;;;5.27;86.98
75013;BME280;63567;49.956;20.130;2022-12-24T05:03:35;96058.25;;;5.25;87.28
75013;BME280;63567;49.956;20.130;2022-12-24T05:06:05;96043.94;;;5.21;87.23
75013;BME280;63567;49.956;20.130;2022-12-24T05:08:32;96053.75;;;5.19;87.26
75013;BME280;63567;49.956;20.130;2022-12-24T05:10:59;96057.69;;;5.14;87.86
75013;BME280;63567;49.956;20.130;2022-12-24T05:13:25;96053.66;;;5.12;87.75
75013;BME280;63567;49.956;20.130;2022-12-24T05:15:50;96061.28;;;5.13;88.17
75013;BME280;63567;49.956;20.130;2022-12-24T05:18:15;96058.03;;;5.11;87.73
75013;BME280;63567;49.956;20.130;2022-12-24T05:20:41;96057.06;;;5.12;87.59
75013;BME280;63567;49.956;20.130;2022-12-24T05:23:08;96059.69;;;5.12;88.03
75013;BME280;63567;49.956;20.130;2022-12-24T05:25:57;96059.03;;;5.10;87.93
75013;BME280;63567;49.956;20.130;2022-12-24T05:28:42;96061.03;;;5.08;88.00
75013;BME280;63567;49.956;20.130;2022-12-24T05:31:07;96067.84;;;5.09;88.58
75013;BME280;63567;49.956;20.130;2022-12-24T05:33:32;96069.81;;;5.07;88.26
75013;BME280;63567;49.956;20.130;2022-12-24T05:35:58;96077.31;;;5.10;88.37
75013;BME280;63567;49.956;20.130;2022-12-24T05:38:23;96075.97;;;5.14;88.16
75013;BME280;63567;49.956;20.130;2022-12-24T05:40:48;96066.16;;;5.17;88.25
75013;BME280;63567;49.956;20.130;2022-12-24T05:43:14;96071.09;;;5.11;88.26
75013;BME280;63567;49.956;20.130;2022-12-24T05:45:39;96069.31;;;5.12;88.54
75013;BME280;63567;49.956;20.130;2022-12-24T05:48:05;96078.59;;;5.14;88.31
75013;BME280;63567;49.956;20.130;2022-12-24T05:50:32;96067.78;;;5.18;88.34
75013;BME280;63567;49.956;20.130;2022-12-24T05:52:57;96080.66;;;5.19;88.60
75013;BME280;63567;49.956;20.130;2022-12-24T05:55:23;96065.63;;;5.21;88.38
75013;BME280;63567;49.956;20.130;2022-12-24T05:57:48;96076.25;;;5.20;88.41
75013;BME280;63567;49.956;20.130;2022-12-24T06:00:14;96082.47;;;5.19;88.26
75013;BME280;63567;49.956;20.130;2022-12-24T06:02:39;96092.72;;;5.20;88.57
75013;BME280;63567;49.956;20.130;2022-12-24T06:05:05;96086.69;;;5.20;88.57
75013;BME280;63567;49.956;20.130;2022-12-24T06:07:30;96092.22;;;5.25;88.72
75013;BME280;63567;49.956;20.130;2022-12-24T06:09:56;96083.00;;;5.29;88.43
75013;BME280;63567;49.956;20.130;2022-12-24T06:12:21;96087.41;;;5.28;88.16
75013;BME280;63567;49.956;20.130;2022-12-24T06:14:47;96089.22;;;5.28;88.45
75013;BME280;63567;49.956;20.130;2022-12-24T06:17:12;96096.06;;;5.29;88.47
75013;BME280;63567;49.956;20.130;2022-12-24T06:19:37;96101.38;;;5.35;88.39
75013;BME280;63567;49.956;20.130;2022-12-24T06:22:03;96100.66;;;5.42;88.31
75013;BME280;63567;49.956;20.130;2022-12-24T06:24:28;96101.50;;;5.42;88.27
75013;BME280;63567;49.956;20.130;2022-12-24T06:26:53;96108.97;;;5.45;88.35
75013;BME280;63567;49.956;20.130;2022-12-24T06:29:19;96113.91;;;5.55;88.10
75013;BME280;63567;49.956;20.130;2022-12-24T06:31:44;96114.38;;;5.59;88.18
75013;BME280;63567;49.956;20.130;2022-12-24T06:34:09;96106.19;;;5.62;88.00
75013;BME280;63567;49.956;20.130;2022-12-24T06:36:35;96117.38;;;5.70;87.69
75013;BME280;63567;49.956;20.130;2022-12-24T06:39:00;96121.41;;;5.73;87.96
75013;BME280;63567;49.956;20.130;2022-12-24T06:41:26;96124.47;;;5.76;87.28
75013;BME280;63567;49.956;20.130;2022-12-24T06:43:52;96120.69;;;5.79;87.22
75013;BME280;63567;49.956;20.130;2022-12-24T06:46:18;96122.56;;;5.85;87.31
75013;BME280;63567;49.956;20.130;2022-12-24T06:48:44;96129.06;;;5.89;86.74
75013;BME280;63567;49.956;20.130;2022-12-24T06:51:11;96130.31;;;5.93;86.69
75013;BME280;63567;49.956;20.130;2022-12-24T06:53:37;96132.28;;;5.91;86.81
75013;BME280;63567;49.956;20.130;2022-12-24T06:56:11;96132.94;;;5.93;86.61
75013;BME280;63567;49.956;20.130;2022-12-24T06:58:37;96138.69;;;5.89;86.91
75013;BME280;63567;49.956;20.130;2022-12-24T07:01:05;96137.53;;;5.91;87.26
75013;BME280;63567;49.956;20.130;2022-12-24T07:03:31;96151.53;;;5.99;86.67
75013;BME280;63567;49.956;20.130;2022-12-24T07:05:58;96149.09;;;5.97;86.90
75013;BME280;63567;49.956;20.130;2022-12-24T07:08:24;96153.94;;;6.00;86.89
75013;BME280;63567;49.956;20.130;2022-12-24T07:10:50;96162.25;;;6.04;86.66
75013;BME280;63567;49.956;20.130;2022-12-24T07:13:16;96170.09;;;6.04;86.61
75013;BME280;63567;49.956;20.130;2022-12-24T07:15:42;96169.56;;;6.08;86.40
75013;BME280;63567;49.956;20.130;2022-12-24T07:18:07;96156.94;;;6.12;86.76
75013;BME280;63567;49.956;20.130;2022-12-24T07:20:33;96167.91;;;6.22;86.46
75013;BME280;63567;49.956;20.130;2022-12-24T07:22:58;96168.09;;;6.21;86.30
75013;BME280;63567;49.956;20.130;2022-12-24T07:25:24;96181.59;;;6.24;86.10
75013;BME280;63567;49.956;20.130;2022-12-24T07:27:49;96179.38;;;6.21;86.02
75013;BME280;63567;49.956;20.130;2022-12-24T07:30:15;96180.63;;;6.25;85.96
75013;BME280;63567;49.956;20.130;2022-12-24T07:32:40;96181.59;;;6.24;85.91
75013;BME280;63567;49.956;20.130;2022-12-24T07:35:06;96195.53;;;6.25;86.13
75013;BME280;63567;49.956;20.130;2022-12-24T07:37:32;96183.59;;;6.22;85.69
75013;BME280;63567;49.956;20.130;2022-12-24T07:39:57;96188.41;;;6.19;86.00
75013;BME280;63567;49.956;20.130;2022-12-24T07:42:22;96188.66;;;6.24;86.03
75013;BME280;63567;49.956;20.130;2022-12-24T07:44:48;96201.63;;;6.32;85.55
75013;BME280;63567;49.956;20.130;2022-12-24T07:47:13;96198.66;;;6.35;85.92
75013;BME280;63567;49.956;20.130;2022-12-24T07:49:39;96199.81;;;6.47;85.62
75013;BME280;63567;49.956;20.130;2022-12-24T07:52:04;96191.66;;;6.57;85.15
75013;BME280;63567;49.956;20.130;2022-12-24T07:54:30;96201.03;;;6.66;84.69
75013;BME280;63567;49.956;20.130;2022-12-24T07:56:55;96199.13;;;6.75;84.73
75013;BME280;63567;49.956;20.130;2022-12-24T07:59:20;96198.03;;;6.69;84.59
75013;BME280;63567;49.956;20.130;2022-12-24T08:01:46;96193.44;;;6.71;84.25
75013;BME280;63567;49.956;20.130;2022-12-24T08:04:11;96193.69;;;6.76;84.33
75013;BME280;63567;49.956;20.130;2022-12-24T08:06:37;96198.41;;;6.81;84.12
75013;BME280;63567;49.956;20.130;2022-12-24T08:09:02;96195.56;;;6.83;83.83
75013;BME280;63567;49.956;20.130;2022-12-24T08:11:28;96215.47;;;6.77;83.71
75013;BME280;63567;49.956;20.130;2022-12-24T08:13:53;96209.31;;;6.70;84.52
75013;BME280;63567;49.956;20.130;2022-12-24T08:16:18;96213.81;;;6.76;84.18
75013;BME280;63567;49.956;20.130;2022-12-24T08:18:44;96209.38;;;6.76;84.27
75013;BME280;63567;49.956;20.130;2022-12-24T08:21:09;96219.75;;;6.85;83.93
75013;BME280;63567;49.956;20.130;2022-12-24T08:23:35;96227.25;;;6.88;83.68
75013;BME280;63567;49.956;20.130;2022-12-24T08:26:01;96232.28;;;6.89;83.41
75013;BME280;63567;49.956;20.130;2022-12-24T08:28:27;96228.94;;;6.95;83.59
75013;BME280;63567;49.956;20.130;2022-12-24T08:30:52;96226.69;;;6.92;83.45
75013;BME280;63567;49.956;20.130;2022-12-24T08:33:18;96236.16;;;6.93;83.28
75013;BME280;63567;49.956;20.130;2022-12-24T08:35:52;96237.69;;;7.03;83.02
75013;BME280;63567;49.956;20.130;2022-12-24T08:38:18;96239.69;;;7.01;82.83
75013;BME280;63567;49.956;20.130;2022-12-24T08:40:44;96242.09;;;7.02;82.96
75013;BME280;63567;49.956;20.130;2022-12-24T08:43:13;96256.63;;;7.05;83.07
75013;BME280;63567;49.956;20.130;2022-12-24T08:45:38;96254.53;;;7.15;82.78
75013;BME280;63567;49.956;20.130;2022-12-24T08:48:04;96243.41;;;7.34;82.36
75013;BME280;63567;49.956;20.130;2022-12-24T08:50:30;96260.34;;;7.53;81.41
75013;BME280;63567;49.956;20.130;2022-12-24T08:52:55;96261.00;;;8.12;80.36
75013;BME280;63567;49.956;20.130;2022-12-24T08:55:21;96251.09;;;8.83;76.11
75013;BME280;63567;49.956;20.130;2022-12-24T08:57:46;96253.44;;;8.37;77.19
75013;BME280;63567;49.956;20.130;2022-12-24T09:00:12;96247.63;;;8.07;78.00
75013;BME280;63567;49.956;20.130;2022-12-24T09:02:37;96252.03;;;7.99;78.68
75013;BME280;63567;49.956;20.130;2022-12-24T09:05:03;96244.38;;;8.68;77.67
75013;BME280;63567;49.956;20.130;2022-12-24T09:07:29;96241.13;;;10.07;72.03
75013;BME280;63567;49.956;20.130;2022-12-24T09:09:54;96239.59;;;10.64;69.10
75013;BME280;63567;49.956;20.130;2022-12-24T09:12:19;96235.44;;;11.27;66.35
75013;BME280;63567;49.956;20.130;2022-12-24T09:14:45;96234.25;;;11.55;64.79
75013;BME280;63567;49.956;20.130;2022-12-24T09:17:10;96241.19;;;11.49;64.95
75013;BME280;63567;49.956;20.130;2022-12-24T09:19:36;96245.56;;;11.94;62.65
75013;BME280;63567;49.956;20.130;2022-12-24T09:22:01;96238.94;;;12.28;61.78
75013;BME280;63567;49.956;20.130;2022-12-24T09:24:27;96248.41;;;12.72;60.58
75013;BME280;63567;49.956;20.130;2022-12-24T09:26:52;96248.13;;;12.25;60.69
75013;BME280;63567;49.956;20.130;2022-12-24T09:29:18;96251.84;;;11.92;62.41
75013;BME280;63567;49.956;20.130;2022-12-24T09:31:43;96258.88;;;12.24;62.43
75013;BME280;63567;49.956;20.130;2022-12-24T09:34:08;96258.19;;;12.90;60.16
75013;BME280;63567;49.956;20.130;2022-12-24T09:36:34;96263.25;;;12.55;61.12
75013;BME280;63567;49.956;20.130;2022-12-24T09:39:00;96260.75;;;12.42;60.25
75013;BME280;63567;49.956;20.130;2022-12-24T09:46:40;96273.94;;;9.91;68.91
75013;BME280;63567;49.956;20.130;2022-12-24T09:49:16;96269.66;;;9.77;70.37
75013;BME280;63567;49.956;20.130;2022-12-24T09:51:48;96273.88;;;9.51;71.68
75013;BME280;63567;49.956;20.130;2022-12-24T09:54:30;96266.75;;;9.12;74.14
75013;BME280;63567;49.956;20.130;2022-12-24T09:57:02;96282.84;;;8.95;75.04
75013;BME280;63567;49.956;20.130;2022-12-24T09:59:41;96276.53;;;8.76;75.44
75013;BME280;63567;49.956;20.130;2022-12-24T10:02:15;96289.78;;;8.61;76.14
75013;BME280;63567;49.956;20.130;2022-12-24T10:04:42;96300.16;;;8.41;76.34
75013;BME280;63567;49.956;20.130;2022-12-24T10:12:36;96317.59;;;8.28;77.12
75013;BME280;63567;49.956;20.130;2022-12-24T10:17:55;96324.47;;;8.29;77.05
75013;BME280;63567;49.956;20.130;2022-12-24T10:20:40;96333.16;;;8.29;76.83
75013;BME280;63567;49.956;20.130;2022-12-24T10:23:14;96332.34;;;8.29;76.09
75013;BME280;63567;49.956;20.130;2022-12-24T10:25:47;96329.47;;;8.23;75.46
75013;BME280;63567;49.956;20.130;2022-12-24T10:28:17;96326.03;;;8.23;76.07
75013;BME280;63567;49.956;20.130;2022-12-24T10:30:46;96324.16;;;8.17;76.11
75013;BME280;63567;49.956;20.130;2022-12-24T10:33:31;96320.16;;;8.21;75.48
75013;BME280;63567;49.956;20.130;2022-12-24T10:35:59;96320.84;;;8.30;74.81
75013;BME280;63567;49.956;20.130;2022-12-24T10:38:24;96327.16;;;8.35;74.55
75013;BME280;63567;49.956;20.130;2022-12-24T10:40:53;96323.00;;;8.48;74.39
75013;BME280;63567;49.956;20.130;2022-12-24T10:43:24;96330.41;;;8.66;73.85
75013;BME280;63567;49.956;20.130;2022-12-24T10:45:55;96336.22;;;8.96;72.68
75013;BME280;63567;49.956;20.130;2022-12-24T10:48:40;96323.94;;;9.10;71.95
75013;BME280;63567;49.956;20.130;2022-12-24T10:56:42;96341.88;;;9.06;71.45
75013;BME280;63567;49.956;20.130;2022-12-24T10:59:29;96350.91;;;8.90;71.12
75013;BME280;63567;49.956;20.130;2022-12-24T11:01:57;96335.16;;;8.90;71.59
75013;BME280;63567;49.956;20.130;2022-12-24T11:04:25;96345.19;;;8.80;71.66
75013;BME280;63567;49.956;20.130;2022-12-24T11:06:53;96358.75;;;8.83;72.19
75013;BME280;63567;49.956;20.130;2022-12-24T11:09:25;96354.88;;;9.14;71.66
75013;BME280;63567;49.956;20.130;2022-12-24T11:11:51;96353.06;;;9.21;70.82
75013;BME280;63567;49.956;20.130;2022-12-24T11:14:19;96346.38;;;9.19;70.25
75013;BME280;63567;49.956;20.130;2022-12-24T11:16:53;96354.88;;;9.14;70.78
75013;BME280;63567;49.956;20.130;2022-12-24T11:19:28;96356.53;;;9.22;70.32
75013;BME280;63567;49.956;20.130;2022-12-24T11:22:02;96364.84;;;9.32;70.52
75013;BME280;63567;49.956;20.130;2022-12-24T11:24:34;96375.00;;;9.42;69.27
75013;BME280;63567;49.956;20.130;2022-12-24T11:29:47;96374.13;;;9.28;70.03
75013;BME280;63567;49.956;20.130;2022-12-24T11:32:21;96392.44;;;9.08;70.97
75013;BME280;63567;49.956;20.130;2022-12-24T11:34:47;96402.09;;;9.01;71.95
75013;BME280;63567;49.956;20.130;2022-12-24T11:37:22;96395.38;;;8.92;72.43
75013;BME280;63567;49.956;20.130;2022-12-24T11:39:52;96399.94;;;8.76;72.80
75013;BME280;63567;49.956;20.130;2022-12-24T11:42:25;96399.50;;;8.73;72.72
75013;BME280;63567;49.956;20.130;2022-12-24T11:44:54;96396.69;;;8.74;73.24
75013;BME280;63567;49.956;20.130;2022-12-24T11:47:35;96402.13;;;8.73;72.87
75013;BME280;63567;49.956;20.130;2022-12-24T11:50:36;96404.81;;;8.51;73.60
75013;BME280;63567;49.956;20.130;2022-12-24T11:55:46;96403.38;;;8.27;74.80
75013;BME280;63567;49.956;20.130;2022-12-24T11:58:31;96405.94;;;8.20;75.03
75013;BME280;63567;49.956;20.130;2022-12-24T12:01:31;96407.44;;;8.08;75.33
75013;BME280;63567;49.956;20.130;2022-12-24T12:04:02;96409.81;;;8.03;75.11
75013;BME280;63567;49.956;20.130;2022-12-24T12:06:37;96406.06;;;7.91;75.82
75013;BME280;63567;49.956;20.130;2022-12-24T12:09:21;96423.84;;;7.95;75.92
75013;BME280;63567;49.956;20.130;2022-12-24T12:11:52;96423.91;;;7.80;76.57
75013;BME280;63567;49.956;20.130;2022-12-24T12:14:24;96436.69;;;7.69;77.71
75013;BME280;63567;49.956;20.130;2022-12-24T12:17:02;96441.69;;;7.64;77.54
75013;BME280;63567;49.956;20.130;2022-12-24T12:19:41;96445.03;;;7.57;77.87
75013;BME280;63567;49.956;20.130;2022-12-24T12:22:21;96459.03;;;7.65;78.18
75013;BME280;63567;49.956;20.130;2022-12-24T12:24:52;96453.53;;;7.59;78.64
75013;BME280;63567;49.956;20.130;2022-12-24T12:30:10;96471.59;;;7.54;79.08
75013;BME280;63567;49.956;20.130;2022-12-24T12:35:23;96477.50;;;7.41;80.46
75013;BME280;63567;49.956;20.130;2022-12-24T12:37:56;96487.09;;;7.34;81.50
75013;BME280;63567;49.956;20.130;2022-12-24T12:40:33;96491.59;;;7.26;82.02
75013;BME280;63567;49.956;20.130;2022-12-24T12:46:04;96497.94;;;7.31;81.63
75013;BME280;63567;49.956;20.130;2022-12-24T12:48:46;96503.19;;;7.31;81.30
75013;BME280;63567;49.956;20.130;2022-12-24T12:54:23;96521.84;;;7.13;82.30
75013;BME280;63567;49.956;20.130;2022-12-24T12:56:55;96526.47;;;7.11;82.65
75013;BME280;63567;49.956;20.130;2022-12-24T12:59:31;96522.13;;;7.18;82.56
75013;BME280;63567;49.956;20.130;2022-12-24T13:18:08;96577.22;;;6.87;83.37
75013;BME280;63567;49.956;20.130;2022-12-24T13:20:42;96591.50;;;6.85;83.92
75013;BME280;63567;49.956;20.130;2022-12-24T13:23:13;96584.28;;;6.87;83.81
75013;BME280;63567;49.956;20.130;2022-12-24T13:25:44;96598.53;;;6.84;83.89
75013;BME280;63567;49.956;20.130;2022-12-24T13:30:53;96592.31;;;6.85;84.17
75013;BME280;63567;49.956;20.130;2022-12-24T13:36:05;96602.66;;;6.78;84.96
75013;BME280;63567;49.956;20.130;2022-12-24T13:44:23;96622.09;;;6.61;85.94
75013;BME280;63567;49.956;20.130;2022-12-24T13:49:35;96635.25;;;6.53;86.65
75013;BME280;63567;49.956;20.130;2022-12-24T13:54:49;96635.41;;;6.51;86.71
75013;BME280;63567;49.956;20.130;2022-12-24T14:02:37;96655.53;;;6.51;86.45
75013;BME280;63567;49.956;20.130;2022-12-24T14:05:07;96655.69;;;6.49;86.28
75013;BME280;63567;49.956;20.130;2022-12-24T14:07:34;96664.88;;;6.45;86.67
75013;BME280;63567;49.956;20.130;2022-12-24T14:10:00;96663.06;;;6.46;86.25
75013;BME280;63567;49.956;20.130;2022-12-24T14:12:46;96660.16;;;6.41;86.75
75013;BME280;63567;49.956;20.130;2022-12-24T14:18:18;96670.91;;;6.46;86.41
75013;BME280;63567;49.956;20.130;2022-12-24T14:20:50;96684.34;;;6.43;86.20
75013;BME280;63567;49.956;20.130;2022-12-24T14:25:56;96691.31;;;6.50;86.23
75013;BME280;63567;49.956;20.130;2022-12-24T14:28:25;96697.44;;;6.43;86.08
75013;BME280;63567;49.956;20.130;2022-12-24T14:31:00;96698.75;;;6.38;86.18
75013;BME280;63567;49.956;20.130;2022-12-24T14:33:31;96708.56;;;6.36;86.98
75013;BME280;63567;49.956;20.130;2022-12-24T14:35:57;96707.56;;;6.37;86.68
75013;BME280;63567;49.956;20.130;2022-12-24T14:38:23;96708.22;;;6.40;86.38
75013;BME280;63567;49.956;20.130;2022-12-24T14:44:07;96724.47;;;6.27;86.48
75013;BME280;63567;49.956;20.130;2022-12-24T14:46:43;96724.16;;;6.22;86.72
75013;BME280;63567;49.956;20.130;2022-12-24T14:49:24;96719.06;;;6.20;87.08
75013;BME280;63567;49.956;20.130;2022-12-24T14:54:40;96738.38;;;6.19;86.73